Time;durP1;ratioP1;P1;durP2;ratioP2;P2;SDS_P1;SDS_P2;PMS_P1;PMS_P2;Temp;Humidity;BMP_temperature;BMP_pressure;BME280_temperature;BME280_humidity;BME280_pressure;Samples;Min_cycle;Max_cycle;Signal;HPM_P1;HPM_P2
2022/04/03 00:01:25;;;;;;;5.50;1.30;;;;;;;-2.50;75.31;98942.04;103544;1300;23910;-26
2022/04/03 00:03:51;;;;;;;3.70;1.50;;;;;;;-2.52;75.45;98941.31;103515;1302;25417;-25
2022/04/03 00:06:18;;;;;;;4.80;1.20;;;;;;;-2.53;75.19;98940.69;103561;1300;24302;-29
2022/04/03 00:08:44;;;;;;;6.00;1.70;;;;;;;-2.55;75.11;98941.01;103501;1302;24309;-30
2022/04/03 00:11:10;;;;;;;4.50;2.60;;;;;;;-2.70;75.76;98944.35;103629;1300;24206;-29
2022/04/03 00:13:36;;;;;;;5.00;1.70;;;;;;;-2.71;76.03;98945.98;103590;1300;24282;-25
2022/04/03 00:16:04;;;;;;;4.70;1.90;;;;;;;-2.69;76.00;98947.77;103559;1300;23598;-25
2022/04/03 00:18:30;;;;;;;5.20;1.70;;;;;;;-2.78;75.76;98949.92;103503;1302;22637;-26
2022/04/03 00:20:56;;;;;;;3.50;2.00;;;;;;;-2.81;75.91;98954.16;103548;1301;24365;-28
2022/04/03 00:23:23;;;;;;;8.90;2.40;;;;;;;-2.89;76.24;98961.06;103427;1302;24306;-29
2022/04/03 00:25:51;;;;;;;3.60;2.00;;;;;;;-2.85;76.11;98957.81;103492;1302;24350;-26
2022/04/03 00:28:17;;;;;;;4.00;1.50;;;;;;;-2.86;76.41;98961.40;103531;1300;22792;-25
2022/04/03 00:30:43;;;;;;;7.10;2.30;;;;;;;-2.91;76.53;98959.14;103516;1301;24212;-30
2022/04/03 00:33:09;;;;;;;4.80;1.60;;;;;;;-2.88;76.43;98961.16;103521;1300;24362;-30
2022/04/03 00:35:35;;;;;;;3.00;1.30;;;;;;;-2.94;76.72;98961.32;103621;1300;24401;-25
2022/04/03 00:38:01;;;;;;;4.60;1.70;;;;;;;-2.99;77.12;98952.46;103524;1302;24218;-25
2022/04/03 00:40:27;;;;;;;5.60;1.90;;;;;;;-2.94;76.62;98960.98;103578;1300;24283;-27
2022/04/03 00:42:52;;;;;;;3.50;1.60;;;;;;;-3.02;77.14;98963.33;103501;1300;24222;-30
2022/04/03 00:45:19;;;;;;;3.40;1.70;;;;;;;-3.01;77.57;98963.98;103524;1300;24348;-30
2022/04/03 00:47:47;;;;;;;3.50;0.70;;;;;;;-3.00;77.44;98964.75;103578;1300;24382;-25
2022/04/03 00:50:12;;;;;;;17.70;1.50;;;;;;;-3.03;77.32;98964.48;103574;1300;23991;-27
2022/04/03 00:52:38;;;;;;;6.40;1.30;;;;;;;-3.03;77.64;98964.11;103457;1301;24353;-30
2022/04/03 00:55:04;;;;;;;3.80;1.10;;;;;;;-3.05;77.47;98963.94;103588;1300;24217;-28
2022/04/03 00:57:30;;;;;;;1.40;0.80;;;;;;;-2.99;77.19;98966.84;103589;1300;24311;-28
2022/04/03 00:59:56;;;;;;;4.10;1.60;;;;;;;-3.06;77.68;98963.33;103595;1300;24046;-25
2022/04/03 01:02:22;;;;;;;5.90;2.00;;;;;;;-3.03;77.56;98960.60;103537;1301;23704;-29
2022/04/03 01:04:48;;;;;;;4.00;1.30;;;;;;;-3.02;78.02;98965.31;103556;1300;22506;-30
2022/04/03 01:07:14;;;;;;;3.50;1.40;;;;;;;-3.11;77.53;98969.29;103525;1300;24262;-28
2022/04/03 01:09:41;;;;;;;8.50;1.80;;;;;;;-3.06;77.24;98968.20;103502;1300;24214;-29
2022/04/03 01:12:07;;;;;;;5.50;1.60;;;;;;;-3.14;77.59;98973.41;103577;1300;22514;-27
2022/04/03 01:14:34;;;;;;;7.10;1.80;;;;;;;-3.17;78.41;98975.74;103581;1300;24252;-28
2022/04/03 01:17:00;;;;;;;5.50;1.70;;;;;;;-3.16;78.68;98977.41;103333;1303;23883;-26
2022/04/03 01:19:26;;;;;;;2.00;1.20;;;;;;;-3.16;78.55;98980.17;103514;1302;24317;-29
2022/04/03 01:21:52;;;;;;;5.60;1.50;;;;;;;-3.14;78.84;98976.77;103519;1300;24214;-26
2022/04/03 01:24:19;;;;;;;7.20;2.70;;;;;;;-3.13;78.67;98978.43;103524;1300;24292;-26
2022/04/03 01:26:46;;;;;;;5.10;1.70;;;;;;;-3.17;78.16;98981.02;103625;1300;24254;-29
2022/04/03 01:29:11;;;;;;;3.00;1.50;;;;;;;-3.14;78.10;98979.73;103583;1300;24348;-28
2022/04/03 01:31:37;;;;;;;3.00;1.60;;;;;;;-3.16;77.80;98981.64;103558;1300;24243;-25
2022/04/03 01:34:04;;;;;;;6.10;1.90;;;;;;;-3.16;77.80;98981.63;103526;1300;24003;-30
2022/04/03 01:36:31;;;;;;;2.30;1.20;;;;;;;-3.11;77.85;98983.14;103521;1300;24205;-26
2022/04/03 01:38:57;;;;;;;4.10;1.00;;;;;;;-3.08;78.04;98985.36;103522;1300;23611;-26
2022/04/03 01:41:22;;;;;;;6.50;1.90;;;;;;;-3.11;77.40;98985.04;103552;1300;23865;-29
2022/04/03 01:43:48;;;;;;;6.40;1.50;;;;;;;-3.11;77.42;98984.56;103414;1302;23586;-30
2022/04/03 01:46:14;;;;;;;4.70;1.50;;;;;;;-3.13;77.35;98987.89;103493;1300;22721;-30
2022/04/03 01:48:41;;;;;;;4.80;1.70;;;;;;;-3.16;77.46;98986.52;103465;1302;22883;-27
2022/04/03 01:51:07;;;;;;;4.20;0.80;;;;;;;-3.13;77.51;98986.43;103448;1302;24242;-29
2022/04/03 01:53:33;;;;;;;2.50;0.90;;;;;;;-3.17;77.52;98986.29;103563;1300;24341;-26
2022/04/03 01:56:01;;;;;;;4.30;1.30;;;;;;;-3.19;77.41;98987.44;103574;1299;24301;-28
2022/04/03 01:58:27;;;;;;;3.60;1.30;;;;;;;-3.17;77.63;98990.30;103479;1302;22501;-26
2022/04/03 02:00:53;;;;;;;4.40;1.50;;;;;;;-3.24;77.79;98986.62;103552;1300;22564;-25
2022/04/03 02:03:19;;;;;;;0.80;0.40;;;;;;;-3.24;77.29;98990.27;103538;1300;24219;-28
2022/04/03 02:05:45;;;;;;;4.30;1.60;;;;;;;-3.21;77.23;98986.79;103639;1300;25225;-29
2022/04/03 02:08:11;;;;;;;5.50;1.40;;;;;;;-3.15;77.28;98988.17;103560;1300;24300;-28
2022/04/03 02:10:38;;;;;;;4.40;1.40;;;;;;;-3.16;77.77;98987.41;103499;1300;24216;-25
2022/04/03 02:13:05;;;;;;;9.90;2.20;;;;;;;-3.19;77.79;98987.48;103465;1300;24356;-29
2022/04/03 02:15:31;;;;;;;9.60;2.10;;;;;;;-3.27;77.58;98986.84;103594;1300;22502;-28
2022/04/03 02:17:57;;;;;;;9.50;2.00;;;;;;;-3.22;77.83;98988.91;103575;1300;24214;-28
2022/04/03 02:20:23;;;;;;;2.10;1.10;;;;;;;-3.19;77.79;98988.85;103596;1300;24260;-25
2022/04/03 02:22:49;;;;;;;5.00;1.40;;;;;;;-3.15;77.11;98994.86;103539;1300;24237;-25
2022/04/03 02:25:15;;;;;;;2.80;1.30;;;;;;;-3.17;76.88;98994.42;103577;1300;24301;-28
2022/04/03 02:27:44;;;;;;;6.00;1.50;;;;;;;-3.23;76.92;98993.90;103525;1300;23800;-26
2022/04/03 02:30:10;;;;;;;5.50;1.10;;;;;;;-3.19;77.05;98995.36;103557;1300;24315;-30
2022/04/03 02:32:37;;;;;;;3.20;1.00;;;;;;;-3.27;77.29;98995.13;103523;1301;23801;-28
2022/04/03 02:35:06;;;;;;;7.70;1.70;;;;;;;-3.32;77.24;98994.23;103538;1300;23747;-25
2022/04/03 02:37:33;;;;;;;4.30;1.20;;;;;;;-3.28;77.26;98996.41;103584;1300;24266;-26
2022/04/03 02:39:59;;;;;;;3.20;1.60;;;;;;;-3.24;77.66;98996.63;103532;1300;24381;-27
2022/04/03 02:42:25;;;;;;;4.90;1.50;;;;;;;-3.32;77.58;99001.40;103563;1300;22824;-26
2022/04/03 02:44:52;;;;;;;3.50;1.80;;;;;;;-3.33;77.93;98999.34;103536;1300;23773;-26
2022/04/03 02:47:18;;;;;;;2.60;0.60;;;;;;;-3.28;77.27;99004.12;103553;1300;24226;-26
2022/04/03 02:49:50;;;;;;;14.10;1.20;;;;;;;-3.34;77.76;99008.20;103604;1300;22736;-29
2022/04/03 02:52:17;;;;;;;3.00;1.30;;;;;;;-3.28;77.40;99009.84;103510;1300;24402;-29
2022/04/03 02:54:44;;;;;;;1.60;0.70;;;;;;;-3.28;77.04;99011.59;103594;1300;23942;-30
2022/04/03 02:57:12;;;;;;;3.70;1.30;;;;;;;-3.32;77.25;99012.95;103547;1300;24972;-27
2022/04/03 02:59:38;;;;;;;9.50;1.80;;;;;;;-3.32;77.36;99018.25;103639;1300;24248;-27
2022/04/03 03:02:04;;;;;;;5.90;1.40;;;;;;;-3.36;77.86;99015.92;103497;1300;24228;-26
2022/04/03 03:04:32;;;;;;;2.90;1.40;;;;;;;-3.39;77.39;99020.85;103552;1300;23824;-30
2022/04/03 03:06:57;;;;;;;10.80;1.40;;;;;;;-3.33;77.49;99020.95;103528;1300;24339;-27
2022/04/03 03:09:23;;;;;;;3.10;1.20;;;;;;;-3.31;77.22;99022.16;103593;1300;24195;-29
2022/04/03 03:11:49;;;;;;;2.40;1.20;;;;;;;-3.33;77.27;99026.87;103560;1300;24197;-29
2022/04/03 03:14:16;;;;;;;4.00;1.60;;;;;;;-3.37;77.82;99025.98;103554;1301;24220;-25
2022/04/03 03:16:42;;;;;;;3.10;1.50;;;;;;;-3.33;77.66;99027.36;103539;1300;24218;-29
2022/04/03 03:19:09;;;;;;;4.60;1.60;;;;;;;-3.31;77.83;99027.73;103548;1300;24226;-25
2022/04/03 03:21:36;;;;;;;2.10;1.20;;;;;;;-3.35;77.64;99026.48;103597;1300;25235;-26
2022/04/03 03:24:02;;;;;;;2.70;1.20;;;;;;;-3.46;77.66;99035.91;103514;1300;22687;-26
2022/04/03 03:26:28;;;;;;;2.00;1.40;;;;;;;-3.43;77.83;99039.89;103549;1300;24307;-29
2022/04/03 03:28:54;;;;;;;7.40;1.80;;;;;;;-3.36;78.00;99041.42;103617;1300;24367;-25
2022/04/03 03:31:19;;;;;;;3.30;1.40;;;;;;;-3.33;77.62;99038.56;103573;1300;24216;-26
2022/04/03 03:33:47;;;;;;;3.50;1.40;;;;;;;-3.37;77.71;99045.55;103622;1300;24295;-26
2022/04/03 03:36:13;;;;;;;9.50;1.60;;;;;;;-3.41;78.17;99048.90;103563;1300;23653;-29
2022/04/03 03:38:40;;;;;;;4.40;1.40;;;;;;;-3.44;78.30;99047.86;103612;1300;24449;-26
2022/04/03 03:41:06;;;;;;;2.20;1.20;;;;;;;-3.49;78.24;99054.67;103589;1300;24302;-28
2022/04/03 03:43:32;;;;;;;3.10;1.70;;;;;;;-3.53;78.74;99056.05;103563;1300;24218;-29
2022/04/03 03:45:59;;;;;;;9.10;2.30;;;;;;;-3.48;78.77;99055.16;103516;1300;22773;-25
2022/04/03 03:48:25;;;;;;;4.90;1.60;;;;;;;-3.52;78.92;99057.19;103596;1300;24212;-30
2022/04/03 03:50:51;;;;;;;3.20;1.60;;;;;;;-3.48;78.80;99060.42;103472;1300;24214;-27
2022/04/03 03:53:18;;;;;;;5.50;2.10;;;;;;;-3.50;78.69;99063.34;103608;1300;24273;-25
2022/04/03 03:55:45;;;;;;;15.80;1.60;;;;;;;-3.52;79.16;99059.88;103537;1300;22533;-26
2022/04/03 03:58:11;;;;;;;6.70;2.20;;;;;;;-3.54;79.01;99062.61;103586;1300;23524;-25
2022/04/03 04:00:37;;;;;;;5.20;1.30;;;;;;;-3.62;79.29;99066.48;103506;1300;23822;-30
2022/04/03 04:03:04;;;;;;;9.40;2.50;;;;;;;-3.62;79.26;99070.05;103540;1300;22488;-26
2022/04/03 04:05:30;;;;;;;3.80;1.40;;;;;;;-3.60;79.29;99074.64;103515;1300;24367;-25
2022/04/03 04:07:56;;;;;;;3.70;1.50;;;;;;;-3.61;79.65;99078.05;103536;1300;22887;-25
2022/04/03 04:10:22;;;;;;;1.60;1.20;;;;;;;-3.65;79.71;99084.48;103416;1301;24254;-25
2022/04/03 04:12:49;;;;;;;4.90;1.90;;;;;;;-3.67;79.68;99086.67;103253;1300;466053;-25
2022/04/03 04:15:15;;;;;;;1.80;0.30;;;;;;;-3.73;79.70;99089.95;103644;1300;22540;-28
2022/04/03 04:17:43;;;;;;;2.90;0.90;;;;;;;-3.61;79.37;99094.44;103472;1301;24338;-29
2022/04/03 04:20:12;;;;;;;2.40;1.20;;;;;;;-3.62;79.82;99099.59;103594;1300;24178;-26
2022/04/03 04:22:39;;;;;;;7.10;1.30;;;;;;;-3.68;80.16;99100.03;103580;1300;24345;-26
2022/04/03 04:25:06;;;;;;;10.20;2.30;;;;;;;-3.69;80.05;99100.80;103558;1300;22643;-26
2022/04/03 04:27:32;;;;;;;5.90;1.80;;;;;;;-3.72;79.86;99102.24;103636;1300;24248;-29
2022/04/03 04:29:58;;;;;;;4.10;2.50;;;;;;;-3.66;80.14;99101.83;103472;1300;24995;-26
2022/04/03 04:32:23;;;;;;;4.40;1.30;;;;;;;-3.69;79.71;99105.58;103520;1300;24244;-28
2022/04/03 04:34:50;;;;;;;3.00;1.10;;;;;;;-3.67;80.24;99109.82;103504;1300;24286;-29
2022/04/03 04:37:17;;;;;;;4.60;2.40;;;;;;;-3.63;79.96;99110.88;103588;1300;24294;-28
2022/04/03 04:39:43;;;;;;;0.80;0.50;;;;;;;-3.64;80.26;99108.19;103314;1300;25447;-28
2022/04/03 04:42:09;;;;;;;8.70;3.20;;;;;;;-3.71;79.82;99114.79;103610;1300;24221;-25
2022/04/03 04:44:35;;;;;;;5.90;1.40;;;;;;;-3.65;79.97;99117.16;103543;1300;24242;-28
2022/04/03 04:47:01;;;;;;;3.90;1.70;;;;;;;-3.58;79.76;99118.55;103530;1300;24301;-26
2022/04/03 04:49:27;;;;;;;3.80;2.00;;;;;;;-3.70;79.44;99123.82;103505;1300;24062;-25
2022/04/03 04:51:53;;;;;;;5.10;2.40;;;;;;;-3.61;79.93;99125.82;103548;1300;24316;-25
2022/04/03 04:54:19;;;;;;;2.80;1.30;;;;;;;-3.55;79.99;99126.24;103548;1300;24259;-28
2022/04/03 04:56:45;;;;;;;4.50;1.50;;;;;;;-3.59;79.46;99128.77;103559;1300;24284;-25
2022/04/03 04:59:11;;;;;;;9.80;3.20;;;;;;;-3.53;79.53;99131.98;103532;1301;24370;-30
2022/04/03 05:01:38;;;;;;;8.70;2.30;;;;;;;-3.51;79.42;99131.52;103406;1302;24212;-27
2022/04/03 05:04:04;;;;;;;7.00;2.20;;;;;;;-3.34;78.91;99129.70;103541;1300;24292;-31
2022/04/03 05:06:31;;;;;;;2.90;1.30;;;;;;;-3.32;79.08;99136.74;103550;1300;22765;-27
2022/04/03 05:08:57;;;;;;;7.10;2.20;;;;;;;-3.31;79.41;99138.95;103568;1300;24254;-28
2022/04/03 05:11:23;;;;;;;2.50;1.30;;;;;;;-3.20;78.40;99145.65;103576;1300;24352;-25
2022/04/03 05:13:49;;;;;;;3.50;1.60;;;;;;;-3.27;78.21;99150.42;103463;1302;22733;-30
2022/04/03 05:16:15;;;;;;;2.40;1.40;;;;;;;-3.18;78.28;99149.38;103575;1300;24346;-25
2022/04/03 05:18:41;;;;;;;3.10;1.70;;;;;;;-3.20;78.87;99153.69;103611;1300;24371;-30
2022/04/03 05:21:08;;;;;;;5.40;2.30;;;;;;;-3.14;78.32;99155.16;103534;1301;24236;-25
2022/04/03 05:23:34;;;;;;;4.60;2.30;;;;;;;-3.00;78.21;99154.80;103562;1300;24283;-25
2022/04/03 05:26:00;;;;;;;2.40;0.80;;;;;;;-2.94;78.29;99158.77;103588;1300;24362;-26
2022/04/03 05:28:26;;;;;;;4.60;1.80;;;;;;;-2.99;77.53;99161.23;103571;1300;23521;-29
2022/04/03 05:30:53;;;;;;;5.50;2.30;;;;;;;-2.94;77.88;99168.20;103493;1302;24377;-26
2022/04/03 05:33:18;;;;;;;2.30;1.00;;;;;;;-2.94;77.59;99169.59;103555;1300;24272;-30
2022/04/03 05:35:44;;;;;;;3.40;1.20;;;;;;;-2.97;77.39;99169.80;103604;1300;24376;-30
2022/04/03 05:38:11;;;;;;;2.60;1.20;;;;;;;-3.09;77.57;99178.97;103526;1300;23590;-28
2022/04/03 05:40:36;;;;;;;5.70;1.80;;;;;;;-2.77;77.11;99176.86;103572;1300;24271;-25
2022/04/03 05:43:03;;;;;;;9.60;3.30;;;;;;;-2.77;77.18;99178.05;103415;1300;24348;-29
2022/04/03 05:45:30;;;;;;;8.20;1.80;;;;;;;-2.74;77.37;99179.31;103571;1300;22506;-25
2022/04/03 05:47:56;;;;;;;3.90;2.40;;;;;;;-2.64;77.41;99180.98;103548;1300;24292;-25
2022/04/03 05:50:23;;;;;;;6.70;2.30;;;;;;;-2.75;76.95;99184.83;103618;1300;22515;-28
2022/04/03 05:52:50;;;;;;;4.50;1.90;;;;;;;-2.56;76.89;99186.16;103547;1300;24266;-26
2022/04/03 05:55:19;;;;;;;11.70;2.60;;;;;;;-2.49;76.72;99189.08;103563;1300;22990;-29
2022/04/03 05:57:46;;;;;;;6.90;1.70;;;;;;;-2.45;76.44;99191.61;103662;1300;24363;-26
2022/04/03 06:00:13;;;;;;;7.60;2.00;;;;;;;-2.52;75.94;99193.55;103569;1300;24256;-29
2022/04/03 06:02:41;;;;;;;18.80;2.50;;;;;;;-2.48;75.57;99195.31;103571;1300;24249;-29
2022/04/03 06:05:08;;;;;;;5.30;2.10;;;;;;;-2.37;76.30;99194.48;103598;1300;25167;-29
2022/04/03 06:07:34;;;;;;;2.80;1.80;;;;;;;-2.34;75.84;99198.64;103583;1300;24343;-28
2022/04/03 06:10:00;;;;;;;5.00;2.50;;;;;;;-2.26;75.96;99201.84;103539;1300;22626;-29
2022/04/03 06:12:26;;;;;;;3.20;1.90;;;;;;;-2.04;76.20;99207.52;103570;1300;23586;-26
2022/04/03 06:14:52;;;;;;;3.10;1.50;;;;;;;-1.86;75.75;99206.05;103530;1300;23897;-26
2022/04/03 06:17:17;;;;;;;5.00;2.70;;;;;;;-2.07;74.08;99213.33;103546;1300;24433;-29
2022/04/03 06:19:43;;;;;;;6.90;2.40;;;;;;;-2.16;74.47;99216.18;103551;1300;24359;-29
2022/04/03 06:22:09;;;;;;;4.90;2.10;;;;;;;-1.97;74.49;99217.30;103527;1300;24247;-25
2022/04/03 06:24:35;;;;;;;2.30;1.50;;;;;;;-1.97;74.12;99225.53;103487;1302;24225;-27
2022/04/03 06:27:01;;;;;;;4.90;1.90;;;;;;;-1.72;75.01;99224.94;103483;1300;24425;-29
2022/04/03 06:29:27;;;;;;;12.20;3.60;;;;;;;-1.75;73.97;99226.45;103513;1300;23602;-28
2022/04/03 06:31:53;;;;;;;8.00;2.90;;;;;;;-1.54;73.98;99232.62;103523;1300;24247;-29
2022/04/03 06:34:19;;;;;;;4.90;2.40;;;;;;;-1.49;73.02;99231.14;103529;1300;22511;-29
2022/04/03 06:36:45;;;;;;;6.50;2.40;;;;;;;-1.42;72.69;99233.93;103533;1300;24252;-29
2022/04/03 06:39:11;;;;;;;5.00;2.80;;;;;;;-1.15;72.46;99230.70;103438;1300;22726;-30
2022/04/03 06:41:37;;;;;;;2.90;1.90;;;;;;;-0.94;72.50;99233.90;103578;1300;24420;-29
2022/04/03 06:44:03;;;;;;;4.70;1.90;;;;;;;-0.89;72.16;99236.83;103607;1300;23636;-26
2022/04/03 06:46:30;;;;;;;4.90;2.00;;;;;;;-0.59;72.14;99239.92;103626;1300;24240;-26
2022/04/03 06:48:57;;;;;;;7.50;3.30;;;;;;;-0.52;71.59;99242.15;103505;1300;24240;-25
2022/04/03 06:51:23;;;;;;;2.50;1.70;;;;;;;-0.37;71.72;99238.77;103585;1300;24339;-29
2022/04/03 06:53:49;;;;;;;4.50;2.30;;;;;;;-0.52;70.09;99242.77;103525;1300;24301;-29
2022/04/03 06:56:16;;;;;;;13.50;2.50;;;;;;;-0.66;69.68;99250.54;103578;1300;24216;-26
2022/04/03 06:58:42;;;;;;;3.50;1.60;;;;;;;-0.57;70.51;99253.30;103484;1301;24652;-26
2022/04/03 07:01:08;;;;;;;14.60;3.20;;;;;;;-0.72;70.24;99254.70;103524;1300;24353;-28
2022/04/03 07:03:34;;;;;;;6.80;3.40;;;;;;;-0.51;70.34;99253.11;103557;1300;22502;-26
2022/04/03 07:06:00;;;;;;;8.50;3.10;;;;;;;-0.44;70.66;99260.95;103592;1300;24256;-30
2022/04/03 07:08:28;;;;;;;3.70;2.70;;;;;;;-0.24;70.49;99257.83;103614;1300;24249;-31
2022/04/03 07:10:55;;;;;;;6.40;2.40;;;;;;;-0.16;69.57;99261.95;103608;1300;24236;-30
2022/04/03 07:13:21;;;;;;;6.10;2.10;;;;;;;-0.05;70.19;99262.02;103554;1300;24241;-30
2022/04/03 07:15:49;;;;;;;4.30;2.70;;;;;;;0.14;70.12;99264.63;103543;1300;24269;-25
2022/04/03 07:18:16;;;;;;;3.20;2.00;;;;;;;0.13;68.48;99268.77;103464;1300;24343;-29
2022/04/03 07:20:46;;;;;;;5.80;2.00;;;;;;;0.03;68.04;99272.05;103572;1300;24331;-29
2022/04/03 07:23:13;;;;;;;5.00;2.20;;;;;;;0.43;68.45;99271.72;103603;1300;24267;-30
2022/04/03 07:25:39;;;;;;;4.10;1.70;;;;;;;0.58;68.74;99274.27;103510;1300;24429;-29
2022/04/03 07:28:05;;;;;;;7.80;3.50;;;;;;;0.78;67.56;99280.16;103616;1300;24222;-28
2022/04/03 07:30:31;;;;;;;16.50;4.10;;;;;;;0.90;67.12;99280.42;103572;1300;24214;-28
2022/04/03 07:32:57;;;;;;;9.00;2.80;;;;;;;0.78;65.78;99281.55;103485;1300;23790;-28
2022/04/03 07:35:25;;;;;;;8.60;2.70;;;;;;;0.99;66.16;99280.00;103527;1300;24294;-25
2022/04/03 07:37:51;;;;;;;4.50;2.30;;;;;;;0.71;64.54;99285.68;103537;1300;24304;-28
2022/04/03 07:40:17;;;;;;;9.30;2.60;;;;;;;0.45;65.42;99287.40;103545;1300;22509;-25
2022/04/03 07:42:43;;;;;;;3.50;1.70;;;;;;;0.39;65.88;99287.48;103494;1300;24378;-27
2022/04/03 07:45:11;;;;;;;4.30;1.40;;;;;;;0.71;66.48;99292.39;103510;1300;23865;-25
2022/04/03 07:47:45;;;;;;;4.50;3.00;;;;;;;0.95;65.78;99292.66;103544;1300;24481;-29
2022/04/03 07:50:11;;;;;;;5.90;2.40;;;;;;;1.16;65.08;99292.90;103561;1299;24317;-28
2022/04/03 07:52:37;;;;;;;4.00;2.40;;;;;;;0.94;64.57;99296.98;103573;1300;24259;-24
2022/04/03 07:55:03;;;;;;;2.30;1.70;;;;;;;0.89;65.32;99298.74;103537;1300;24215;-25
2022/04/03 07:57:29;;;;;;;4.30;2.10;;;;;;;0.80;64.42;99301.27;103578;1300;24365;-29
2022/04/03 07:59:55;;;;;;;4.90;2.40;;;;;;;1.07;64.31;99300.95;103585;1300;22511;-28
2022/04/03 08:02:21;;;;;;;10.20;1.80;;;;;;;1.08;64.03;99302.27;103567;1300;22913;-25
2022/04/03 08:04:47;;;;;;;4.30;2.40;;;;;;;1.14;64.92;99303.34;103507;1300;24466;-29
2022/04/03 08:07:13;;;;;;;3.80;2.10;;;;;;;1.23;64.26;99303.77;103507;1302;23600;-29
2022/04/03 08:09:41;;;;;;;5.70;3.30;;;;;;;0.97;64.73;99308.17;103524;1300;24251;-24
2022/04/03 08:12:08;;;;;;;3.50;1.90;;;;;;;1.47;64.57;99306.64;103516;1300;22727;-28
2022/04/03 08:14:34;;;;;;;6.50;2.90;;;;;;;1.96;64.15;99305.45;103620;1300;24387;-25
2022/04/03 08:17:00;;;;;;;5.50;2.10;;;;;;;2.19;62.66;99308.23;103458;1300;24214;-28
2022/04/03 08:19:26;;;;;;;5.70;2.70;;;;;;;2.16;62.34;99310.42;103586;1300;24311;-25
2022/04/03 08:21:52;;;;;;;15.50;3.40;;;;;;;2.69;64.11;99308.73;103513;1300;24317;-29
2022/04/03 08:24:17;;;;;;;4.90;2.60;;;;;;;2.83;60.90;99312.73;103520;1302;24218;-30
2022/04/03 08:26:43;;;;;;;8.00;2.90;;;;;;;2.82;61.41;99315.86;103566;1300;24371;-24
2022/04/03 08:29:09;;;;;;;3.70;1.90;;;;;;;2.95;61.31;99318.91;103517;1300;22618;-25
2022/04/03 08:31:36;;;;;;;7.30;2.30;;;;;;;2.96;59.41;99319.44;103405;1300;24282;-28
2022/04/03 08:34:01;;;;;;;7.80;3.60;;;;;;;2.57;59.01;99319.23;103562;1300;24214;-25
2022/04/03 08:36:27;;;;;;;5.20;3.00;;;;;;;2.55;59.67;99317.69;103545;1302;24238;-25
2022/04/03 08:38:54;;;;;;;5.80;2.60;;;;;;;2.94;59.61;99321.02;103559;1300;24302;-25
2022/04/03 08:41:21;;;;;;;2.70;1.30;;;;;;;2.33;59.46;99322.95;103586;1300;23865;-29
2022/04/03 08:43:47;;;;;;;3.20;2.10;;;;;;;2.17;59.96;99322.70;103446;1300;22516;-31
2022/04/03 08:46:14;;;;;;;2.50;1.50;;;;;;;2.86;59.49;99324.27;103545;1300;24213;-24
2022/04/03 08:48:43;;;;;;;3.50;2.50;;;;;;;2.80;58.02;99327.16;103555;1300;22505;-28
2022/04/03 08:51:09;;;;;;;7.60;1.40;;;;;;;2.88;57.95;99323.17;103592;1300;24709;-28
2022/04/03 08:53:35;;;;;;;2.30;1.30;;;;;;;3.03;58.76;99323.79;103604;1300;24289;-29
2022/04/03 08:56:01;;;;;;;3.50;2.10;;;;;;;3.44;58.66;99325.07;103590;1300;23931;-25
2022/04/03 08:58:27;;;;;;;5.30;2.00;;;;;;;3.66;57.15;99327.50;103584;1300;23598;-28
2022/04/03 09:00:52;;;;;;;3.60;2.20;;;;;;;3.22;57.14;99325.85;103626;1300;24308;-26
2022/04/03 09:03:19;;;;;;;5.00;2.30;;;;;;;3.42;56.70;99327.58;103628;1300;24239;-25
2022/04/03 09:05:47;;;;;;;5.50;2.80;;;;;;;3.81;56.43;99321.89;103518;1300;24297;-29
2022/04/03 09:08:14;;;;;;;4.60;1.70;;;;;;;3.75;56.68;99320.78;103618;1300;24203;-26
2022/04/03 09:10:41;;;;;;;2.30;1.40;;;;;;;3.26;55.78;99331.14;103605;1300;24431;-30
2022/04/03 09:13:08;;;;;;;2.90;1.80;;;;;;;2.46;58.18;99335.76;103551;1302;24018;-29
2022/04/03 09:15:34;;;;;;;3.90;2.00;;;;;;;2.38;58.73;99338.38;103456;1302;23961;-27
2022/04/03 09:18:02;;;;;;;6.40;2.70;;;;;;;1.90;60.20;99344.38;103329;1302;24282;-29
2022/04/03 09:20:30;;;;;;;8.50;2.20;;;;;;;1.72;60.07;99344.23;103608;1300;24254;-30
2022/04/03 09:22:58;;;;;;;4.60;2.70;;;;;;;1.55;60.97;99352.20;103566;1300;24220;-29
2022/04/03 09:25:29;;;;;;;4.90;2.90;;;;;;;1.57;61.37;99350.48;103571;1300;24202;-29
2022/04/03 09:27:57;;;;;;;5.20;2.50;;;;;;;1.38;61.73;99352.10;103591;1300;24195;-28
2022/04/03 09:30:28;;;;;;;6.10;1.90;;;;;;;1.35;61.64;99356.10;103593;1300;24237;-28
2022/04/03 09:32:56;;;;;;;3.80;1.80;;;;;;;1.36;61.25;99356.54;103599;1300;24344;-29
2022/04/03 09:35:24;;;;;;;4.20;2.40;;;;;;;2.14;61.52;99352.64;103556;1300;23761;-30
2022/04/03 09:37:58;;;;;;;22.40;1.90;;;;;;;2.61;61.18;99348.75;103610;1297;24219;-29
2022/04/03 09:40:29;;;;;;;3.10;1.90;;;;;;;3.01;59.42;99349.36;103571;1300;24346;-29
2022/04/03 09:43:12;;;;;;;4.20;2.40;;;;;;;3.32;57.58;99352.61;103361;1302;23016;-29
2022/04/03 09:45:45;;;;;;;5.90;1.90;;;;;;;3.44;55.33;99358.59;103410;1300;24300;-26
2022/04/03 09:48:18;;;;;;;3.50;1.20;;;;;;;2.90;53.68;99360.25;103615;1300;23846;-29
2022/04/03 09:50:52;;;;;;;5.50;2.40;;;;;;;2.58;54.79;99365.17;103486;1300;24294;-24
2022/04/03 09:53:19;;;;;;;4.20;2.30;;;;;;;2.25;56.63;99372.81;103554;1300;23983;-26
2022/04/03 09:55:45;;;;;;;4.40;1.60;;;;;;;1.79;58.24;99375.70;103549;1300;24290;-26
2022/04/03 09:58:12;;;;;;;10.70;1.70;;;;;;;1.18;58.96;99377.52;103541;1300;24237;-25
2022/04/03 10:00:40;;;;;;;3.10;1.80;;;;;;;0.83;58.76;99378.89;103431;1302;22510;-29
2022/04/03 10:03:08;;;;;;;5.10;1.70;;;;;;;0.69;58.96;99381.03;103607;1300;22855;-27
2022/04/03 10:05:34;;;;;;;4.00;1.80;;;;;;;0.67;58.58;99381.19;103596;1300;23865;-26
2022/04/03 10:08:01;;;;;;;3.90;1.50;;;;;;;0.61;58.06;99381.39;103609;1300;22508;-31
2022/04/03 10:10:29;;;;;;;5.60;1.90;;;;;;;0.67;58.54;99382.04;103632;1300;24368;-30
2022/04/03 10:12:56;;;;;;;1.60;1.50;;;;;;;0.91;59.35;99382.04;103462;1300;24212;-28
2022/04/03 10:15:24;;;;;;;4.10;2.50;;;;;;;1.02;58.06;99382.54;103545;1300;25384;-28
2022/04/03 10:17:50;;;;;;;1.90;1.10;;;;;;;1.16;57.82;99382.71;103370;1302;23630;-28
2022/04/03 10:20:16;;;;;;;2.10;0.80;;;;;;;1.38;54.81;99376.96;103511;1301;25076;-25
2022/04/03 10:22:44;;;;;;;0.60;0.30;;;;;;;1.54;53.81;99380.42;103571;1300;24987;-25
2022/04/03 10:25:12;;;;;;;2.50;1.30;;;;;;;1.28;54.07;99387.58;103597;1300;24302;-31
2022/04/03 10:27:40;;;;;;;8.60;1.70;;;;;;;1.85;53.43;99380.98;103598;1300;24248;-28
2022/04/03 10:30:06;;;;;;;2.00;1.10;;;;;;;1.93;52.61;99385.02;103604;1300;22506;-27
2022/04/03 10:32:34;;;;;;;1.20;0.80;;;;;;;2.05;52.45;99385.16;103578;1300;23653;-30
2022/04/03 10:35:05;;;;;;;13.90;0.70;;;;;;;2.61;52.56;99376.00;103533;1302;24258;-25
2022/04/03 10:37:32;;;;;;;3.50;1.80;;;;;;;3.61;50.40;99370.98;103534;1300;24151;-25
2022/04/03 10:40:17;;;;;;;6.50;1.20;;;;;;;2.95;50.15;99368.98;103534;1300;24216;-25
2022/04/03 10:42:51;;;;;;;4.20;1.80;;;;;;;2.68;51.85;99373.88;103527;1300;22614;-29
2022/04/03 10:45:19;;;;;;;1.50;0.80;;;;;;;2.82;51.46;99374.13;103575;1300;22734;-25
2022/04/03 10:47:45;;;;;;;2.50;0.80;;;;;;;2.71;51.42;99376.81;103603;1300;23814;-26
2022/04/03 10:50:12;;;;;;;4.20;1.60;;;;;;;2.31;51.85;99377.40;103573;1300;24241;-28
2022/04/03 10:52:38;;;;;;;1.70;0.90;;;;;;;2.30;52.27;99381.77;103567;1300;24212;-30
2022/04/03 10:55:15;;;;;;;1.50;0.80;;;;;;;2.62;52.42;99381.92;103567;1300;25148;-27
2022/04/03 10:57:44;;;;;;;2.00;1.10;;;;;;;2.51;51.41;99382.80;103475;1300;22810;-26
2022/04/03 11:00:10;;;;;;;6.00;1.50;;;;;;;2.32;51.53;99383.64;103639;1300;24423;-26
2022/04/03 11:02:36;;;;;;;5.10;1.10;;;;;;;2.82;51.86;99379.82;103544;1300;24253;-27
2022/04/03 11:05:25;;;;;;;3.40;1.90;;;;;;;3.37;50.31;99377.84;103702;1297;22730;-25
2022/04/03 11:07:53;;;;;;;5.20;2.70;;;;;;;3.31;48.69;99380.02;103555;1300;24271;-29
2022/04/03 11:10:25;;;;;;;3.20;2.20;;;;;;;3.20;48.90;99377.50;103661;1300;24519;-28
2022/04/03 11:12:54;;;;;;;3.30;2.50;;;;;;;3.35;48.27;99381.58;103735;1300;22737;-30
2022/04/03 11:15:23;;;;;;;1.80;1.50;;;;;;;4.04;46.37;99372.69;103632;1300;22509;-26
2022/04/03 11:17:52;;;;;;;6.30;1.90;;;;;;;4.83;47.17;99372.80;103848;1300;22910;-29
2022/04/03 11:20:40;;;;;;;3.10;2.00;;;;;;;5.04;44.73;99364.31;103583;1300;22633;-31
2022/04/03 11:23:09;;;;;;;1.30;1.10;;;;;;;4.87;43.48;99368.60;103840;1300;25351;-27
2022/04/03 11:25:35;;;;;;;2.30;1.10;;;;;;;4.46;42.55;99373.94;103531;1300;24221;-26